sensor_id;sensor_type;location;lat;lon;timestamp;temperature;humidity
75113;DHT22;63692;47.338;8.520;2023-03-01T05:13:58;1.70;93.70
75113;DHT22;63692;47.338;8.520;2023-03-01T05:16:24;1.70;93.90
75113;DHT22;63692;47.338;8.520;2023-03-01T05:18:50;1.70;93.90
75113;DHT22;63692;47.338;8.520;2023-03-01T05:21:16;1.70;93.90
75113;DHT22;63692;47.338;8.520;2023-03-01T05:23:42;1.70;93.80
75113;DHT22;63692;47.338;8.520;2023-03-01T05:26:08;1.70;94.00
75113;DHT22;63692;47.338;8.520;2023-03-01T05:31:01;1.70;94.20
75113;DHT22;63692;47.338;8.520;2023-03-01T05:35:54;1.80;94.00
75113;DHT22;63692;47.338;8.520;2023-03-01T05:38:20;1.70;93.90
75113;DHT22;63692;47.338;8.520;2023-03-01T05:40:48;1.70;93.90
75113;DHT22;63692;47.338;8.520;2023-03-01T05:45:42;1.70;94.00
75113;DHT22;63692;47.338;8.520;2023-03-01T05:53:19;1.80;93.80
75113;DHT22;63692;47.338;8.520;2023-03-01T05:55:46;1.80;93.80
75113;DHT22;63692;47.338;8.520;2023-03-01T06:00:43;1.80;93.90
75113;DHT22;63692;47.338;8.520;2023-03-01T06:03:10;1.80;93.90
75113;DHT22;63692;47.338;8.520;2023-03-01T06:05:37;1.80;93.80
75113;DHT22;63692;47.338;8.520;2023-03-01T06:08:03;1.80;94.10
75113;DHT22;63692;47.338;8.520;2023-03-01T06:10:29;1.80;93.90
75113;DHT22;63692;47.338;8.520;2023-03-01T06:12:55;1.80;93.90
75113;DHT22;63692;47.338;8.520;2023-03-01T06:15:21;1.80;93.90
75113;DHT22;63692;47.338;8.520;2023-03-01T06:17:47;1.80;93.80
75113;DHT22;63692;47.338;8.520;2023-03-01T06:20:18;1.80;93.80
75113;DHT22;63692;47.338;8.520;2023-03-01T06:22:45;1.80;93.70
75113;DHT22;63692;47.338;8.520;2023-03-01T06:25:14;1.80;93.80
75113;DHT22;63692;47.338;8.520;2023-03-01T06:27:40;1.80;93.60
75113;DHT22;63692;47.338;8.520;2023-03-01T06:30:08;1.80;93.90
75113;DHT22;63692;47.338;8.520;2023-03-01T06:32:35;1.80;94.00
75113;DHT22;63692;47.338;8.520;2023-03-01T06:35:00;1.80;94.00
75113;DHT22;63692;47.338;8.520;2023-03-01T06:37:26;1.80;93.90
75113;DHT22;63692;47.338;8.520;2023-03-01T06:39:51;1.80;94.00
75113;DHT22;63692;47.338;8.520;2023-03-01T06:42:17;1.80;94.00
75113;DHT22;63692;47.338;8.520;2023-03-01T06:44:44;1.80;93.90
75113;DHT22;63692;47.338;8.520;2023-03-01T06:47:09;1.80;93.80
75113;DHT22;63692;47.338;8.520;2023-03-01T06:49:35;1.80;93.80
75113;DHT22;63692;47.338;8.520;2023-03-01T06:52:00;1.90;93.80
75113;DHT22;63692;47.338;8.520;2023-03-01T06:54:26;1.90;93.90
75113;DHT22;63692;47.338;8.520;2023-03-01T06:56:51;1.80;93.90
75113;DHT22;63692;47.338;8.520;2023-03-01T06:59:19;1.80;94.20
75113;DHT22;63692;47.338;8.520;2023-03-01T07:01:44;1.80;94.30
75113;DHT22;63692;47.338;8.520;2023-03-01T07:04:11;1.80;94.10
75113;DHT22;63692;47.338;8.520;2023-03-01T07:06:36;1.80;94.20
75113;DHT22;63692;47.338;8.520;2023-03-01T07:09:02;1.90;94.20
75113;DHT22;63692;47.338;8.520;2023-03-01T07:11:27;1.90;94.20
75113;DHT22;63692;47.338;8.520;2023-03-01T07:13:53;1.90;94.00
75113;DHT22;63692;47.338;8.520;2023-03-01T07:16:19;1.90;93.90
75113;DHT22;63692;47.338;8.520;2023-03-01T07:18:45;2.00;93.90
75113;DHT22;63692;47.338;8.520;2023-03-01T07:21:13;2.00;94.00
75113;DHT22;63692;47.338;8.520;2023-03-01T07:23:39;2.00;94.20
75113;DHT22;63692;47.338;8.520;2023-03-01T07:26:05;2.00;94.00
75113;DHT22;63692;47.338;8.520;2023-03-01T07:28:31;2.00;94.00
75113;DHT22;63692;47.338;8.520;2023-03-01T07:31:02;2.00;93.90
75113;DHT22;63692;47.338;8.520;2023-03-01T07:33:28;2.00;94.00
75113;DHT22;63692;47.338;8.520;2023-03-01T07:35:58;2.00;94.00
75113;DHT22;63692;47.338;8.520;2023-03-01T07:38:24;2.00;94.00
75113;DHT22;63692;47.338;8.520;2023-03-01T07:40:50;2.00;94.00
75113;DHT22;63692;47.338;8.520;2023-03-01T07:43:16;2.00;93.90
75113;DHT22;63692;47.338;8.520;2023-03-01T07:45:41;2.00;94.30
75113;DHT22;63692;47.338;8.520;2023-03-01T07:48:07;2.00;94.00
75113;DHT22;63692;47.338;8.520;2023-03-01T07:50:32;2.00;94.40
75113;DHT22;63692;47.338;8.520;2023-03-01T07:52:58;2.00;94.00
75113;DHT22;63692;47.338;8.520;2023-03-01T07:55:23;2.00;94.10
75113;DHT22;63692;47.338;8.520;2023-03-01T07:57:49;2.00;94.00
75113;DHT22;63692;47.338;8.520;2023-03-01T08:00:14;2.00;93.90
75113;DHT22;63692;47.338;8.520;2023-03-01T08:02:40;2.00;93.90
75113;DHT22;63692;47.338;8.520;2023-03-01T08:05:08;2.00;94.00
75113;DHT22;63692;47.338;8.520;2023-03-01T08:07:34;2.00;94.00
75113;DHT22;63692;47.338;8.520;2023-03-01T08:09:59;2.00;93.90
75113;DHT22;63692;47.338;8.520;2023-03-01T08:12:25;2.00;94.00
75113;DHT22;63692;47.338;8.520;2023-03-01T08:14:52;2.00;94.00
75113;DHT22;63692;47.338;8.520;2023-03-01T08:17:18;2.00;94.20
75113;DHT22;63692;47.338;8.520;2023-03-01T08:19:47;2.00;94.00
75113;DHT22;63692;47.338;8.520;2023-03-01T08:22:13;2.00;94.10
75113;DHT22;63692;47.338;8.520;2023-03-01T08:24:38;2.10;94.10
75113;DHT22;63692;47.338;8.520;2023-03-01T08:27:04;2.10;94.10
75113;DHT22;63692;47.338;8.520;2023-03-01T08:29:31;2.10;94.10
75113;DHT22;63692;47.338;8.520;2023-03-01T08:31:56;2.00;94.30
75113;DHT22;63692;47.338;8.520;2023-03-01T08:34:22;2.10;94.00
75113;DHT22;63692;47.338;8.520;2023-03-01T08:36:48;2.10;94.00
75113;DHT22;63692;47.338;8.520;2023-03-01T08:39:16;2.10;94.20
75113;DHT22;63692;47.338;8.520;2023-03-01T08:41:43;2.10;94.40
75113;DHT22;63692;47.338;8.520;2023-03-01T08:44:10;2.20;94.20
75113;DHT22;63692;47.338;8.520;2023-03-01T08:46:41;2.10;94.00
75113;DHT22;63692;47.338;8.520;2023-03-01T08:49:08;2.10;94.30
75113;DHT22;63692;47.338;8.520;2023-03-01T08:51:35;2.10;94.30
75113;DHT22;63692;47.338;8.520;2023-03-01T08:54:07;2.20;94.50
75113;DHT22;63692;47.338;8.520;2023-03-01T08:56:33;2.20;94.30
75113;DHT22;63692;47.338;8.520;2023-03-01T08:58:59;2.20;94.10
75113;DHT22;63692;47.338;8.520;2023-03-01T09:01:24;2.20;94.50
75113;DHT22;63692;47.338;8.520;2023-03-01T09:03:50;2.30;94.50
75113;DHT22;63692;47.338;8.520;2023-03-01T09:06:16;2.30;94.20
75113;DHT22;63692;47.338;8.520;2023-03-01T09:08:43;2.30;94.00
75113;DHT22;63692;47.338;8.520;2023-03-01T09:11:11;2.30;94.00
75113;DHT22;63692;47.338;8.520;2023-03-01T09:13:37;2.30;94.10
75113;DHT22;63692;47.338;8.520;2023-03-01T09:16:05;2.40;94.20
75113;DHT22;63692;47.338;8.520;2023-03-01T09:18:31;2.40;94.20
75113;DHT22;63692;47.338;8.520;2023-03-01T09:21:17;2.50;94.00
75113;DHT22;63692;47.338;8.520;2023-03-01T09:23:45;2.50;94.20
75113;DHT22;63692;47.338;8.520;2023-03-01T09:26:17;2.50;93.80
75113;DHT22;63692;47.338;8.520;2023-03-01T09:28:45;2.50;94.00
75113;DHT22;63692;47.338;8.520;2023-03-01T09:31:11;2.60;93.70
75113;DHT22;63692;47.338;8.520;2023-03-01T09:33:40;2.60;93.70
75113;DHT22;63692;47.338;8.520;2023-03-01T09:36:10;2.60;93.50
75113;DHT22;63692;47.338;8.520;2023-03-01T09:38:36;2.50;93.60
75113;DHT22;63692;47.338;8.520;2023-03-01T09:41:01;2.50;93.80
75113;DHT22;63692;47.338;8.520;2023-03-01T09:43:34;2.50;93.80
75113;DHT22;63692;47.338;8.520;2023-03-01T09:46:09;2.50;93.90
75113;DHT22;63692;47.338;8.520;2023-03-01T09:48:44;2.50;93.90
75113;DHT22;63692;47.338;8.520;2023-03-01T09:51:18;2.60;93.90
75113;DHT22;63692;47.338;8.520;2023-03-01T09:53:45;2.50;93.90
75113;DHT22;63692;47.338;8.520;2023-03-01T09:56:19;2.60;93.90
75113;DHT22;63692;47.338;8.520;2023-03-01T10:01:40;2.60;93.70
75113;DHT22;63692;47.338;8.520;2023-03-01T10:04:26;2.70;93.60
75113;DHT22;63692;47.338;8.520;2023-03-01T10:07:07;2.60;93.70
75113;DHT22;63692;47.338;8.520;2023-03-01T10:09:40;2.70;93.60
75113;DHT22;63692;47.338;8.520;2023-03-01T10:12:33;2.70;93.50
75113;DHT22;63692;47.338;8.520;2023-03-01T10:15:02;2.70;93.50
75113;DHT22;63692;47.338;8.520;2023-03-01T10:17:46;2.80;93.50
75113;DHT22;63692;47.338;8.520;2023-03-01T10:20:37;2.70;93.30
75113;DHT22;63692;47.338;8.520;2023-03-01T10:23:08;2.80;93.50
75113;DHT22;63692;47.338;8.520;2023-03-01T10:25:47;2.80;93.20
75113;DHT22;63692;47.338;8.520;2023-03-01T10:28:59;2.80;93.30
75113;DHT22;63692;47.338;8.520;2023-03-01T10:31:43;2.80;93.20
75113;DHT22;63692;47.338;8.520;2023-03-01T10:34:16;2.80;93.30
75113;DHT22;63692;47.338;8.520;2023-03-01T10:36:43;2.80;93.30
75113;DHT22;63692;47.338;8.520;2023-03-01T10:39:15;2.80;93.20
75113;DHT22;63692;47.338;8.520;2023-03-01T10:41:59;2.80;93.10
75113;DHT22;63692;47.338;8.520;2023-03-01T10:44:45;2.80;93.10
75113;DHT22;63692;47.338;8.520;2023-03-01T10:47:23;2.80;93.00
75113;DHT22;63692;47.338;8.520;2023-03-01T10:50:01;2.80;93.10
75113;DHT22;63692;47.338;8.520;2023-03-01T10:52:36;2.80;93.20
75113;DHT22;63692;47.338;8.520;2023-03-01T10:57:39;2.80;93.10
75113;DHT22;63692;47.338;8.520;2023-03-01T11:00:26;2.80;93.00
75113;DHT22;63692;47.338;8.520;2023-03-01T11:05:25;2.90;92.90
75113;DHT22;63692;47.338;8.520;2023-03-01T11:07:55;2.90;93.40
75113;DHT22;63692;47.338;8.520;2023-03-01T11:12:47;3.00;93.00
75113;DHT22;63692;47.338;8.520;2023-03-01T11:15:39;3.00;92.80
75113;DHT22;63692;47.338;8.520;2023-03-01T11:18:21;3.00;92.70
75113;DHT22;63692;47.338;8.520;2023-03-01T11:20:48;3.00;92.50
75113;DHT22;63692;47.338;8.520;2023-03-01T11:23:16;3.00;92.60
75113;DHT22;63692;47.338;8.520;2023-03-01T11:25:46;3.00;92.70
75113;DHT22;63692;47.338;8.520;2023-03-01T11:28:17;3.00;92.90
75113;DHT22;63692;47.338;8.520;2023-03-01T11:36:56;3.00;92.90
75113;DHT22;63692;47.338;8.520;2023-03-01T11:39:37;3.00;92.80
75113;DHT22;63692;47.338;8.520;2023-03-01T11:45:08;3.00;92.60
75113;DHT22;63692;47.338;8.520;2023-03-01T11:48:03;2.90;92.70
75113;DHT22;63692;47.338;8.520;2023-03-01T11:50:41;3.00;92.70
75113;DHT22;63692;47.338;8.520;2023-03-01T12:00:43;3.00;92.70
75113;DHT22;63692;47.338;8.520;2023-03-01T12:03:25;2.90;92.60
75113;DHT22;63692;47.338;8.520;2023-03-01T12:08:42;2.90;92.60
75113;DHT22;63692;47.338;8.520;2023-03-01T12:20:09;2.90;92.60
75113;DHT22;63692;47.338;8.520;2023-03-01T12:22:56;2.90;93.00
75113;DHT22;63692;47.338;8.520;2023-03-01T12:31:44;2.90;92.50
75113;DHT22;63692;47.338;8.520;2023-03-01T12:37:25;3.00;92.50
75113;DHT22;63692;47.338;8.520;2023-03-01T12:46:04;3.00;92.40
75113;DHT22;63692;47.338;8.520;2023-03-01T12:48:54;3.00;92.30
75113;DHT22;63692;47.338;8.520;2023-03-01T12:51:26;3.00;92.30
75113;DHT22;63692;47.338;8.520;2023-03-01T12:53:55;3.00;92.40
75113;DHT22;63692;47.338;8.520;2023-03-01T12:56:29;3.00;92.40
75113;DHT22;63692;47.338;8.520;2023-03-01T13:02:23;3.00;92.40
75113;DHT22;63692;47.338;8.520;2023-03-01T13:05:20;3.00;92.50
75113;DHT22;63692;47.338;8.520;2023-03-01T13:10:21;3.10;92.40
75113;DHT22;63692;47.338;8.520;2023-03-01T13:17:56;3.00;92.40
75113;DHT22;63692;47.338;8.520;2023-03-01T13:23:25;3.00;92.60
75113;DHT22;63692;47.338;8.520;2023-03-01T13:34:00;3.00;92.60
75113;DHT22;63692;47.338;8.520;2023-03-01T13:39:05;3.00;92.60
75113;DHT22;63692;47.338;8.520;2023-03-01T13:46:51;3.00;92.50
75113;DHT22;63692;47.338;8.520;2023-03-01T13:49:21;3.00;92.50
75113;DHT22;63692;47.338;8.520;2023-03-01T13:51:50;3.00;92.60
75113;DHT22;63692;47.338;8.520;2023-03-01T13:54:29;3.00;92.70
75113;DHT22;63692;47.338;8.520;2023-03-01T13:56:57;3.00;92.60
75113;DHT22;63692;47.338;8.520;2023-03-01T13:59:23;3.00;92.60
75113;DHT22;63692;47.338;8.520;2023-03-01T14:09:23;2.90;92.60
75113;DHT22;63692;47.338;8.520;2023-03-01T14:14:34;2.90;92.70
75113;DHT22;63692;47.338;8.520;2023-03-01T14:19:36;2.90;92.40
75113;DHT22;63692;47.338;8.520;2023-03-01T14:22:35;2.90;92.30
75113;DHT22;63692;47.338;8.520;2023-03-01T14:25:06;2.90;92.50
75113;DHT22;63692;47.338;8.520;2023-03-01T14:30:02;2.90;92.80
75113;DHT22;63692;47.338;8.520;2023-03-01T14:32:30;3.00;92.70
75113;DHT22;63692;47.338;8.520;2023-03-01T14:34:57;3.00;92.40
75113;DHT22;63692;47.338;8.520;2023-03-01T14:37:34;3.00;92.30
75113;DHT22;63692;47.338;8.520;2023-03-01T14:40:03;3.10;92.40
75113;DHT22;63692;47.338;8.520;2023-03-01T14:42:35;3.10;92.50
75113;DHT22;63692;47.338;8.520;2023-03-01T14:45:02;3.10;92.20
75113;DHT22;63692;47.338;8.520;2023-03-01T14:47:33;3.10;92.30
75113;DHT22;63692;47.338;8.520;2023-03-01T14:50:04;3.10;92.40
75113;DHT22;63692;47.338;8.520;2023-03-01T14:52:42;3.20;91.80
75113;DHT22;63692;47.338;8.520;2023-03-01T14:55:41;3.20;91.80
75113;DHT22;63692;47.338;8.520;2023-03-01T14:58:11;3.10;91.90
75113;DHT22;63692;47.338;8.520;2023-03-01T15:00:37;3.10;92.10
75113;DHT22;63692;47.338;8.520;2023-03-01T15:03:17;3.20;92.00
75113;DHT22;63692;47.338;8.520;2023-03-01T15:05:45;3.10;91.90
75113;DHT22;63692;47.338;8.520;2023-03-01T15:08:20;3.10;91.60
75113;DHT22;63692;47.338;8.520;2023-03-01T15:11:23;3.10;91.60
75113;DHT22;63692;47.338;8.520;2023-03-01T15:13:51;3.10;91.50
75113;DHT22;63692;47.338;8.520;2023-03-01T15:16:21;3.10;91.70
75113;DHT22;63692;47.338;8.520;2023-03-01T15:19:02;3.10;91.70
75113;DHT22;63692;47.338;8.520;2023-03-01T15:21:36;3.00;91.90
75113;DHT22;63692;47.338;8.520;2023-03-01T15:27:12;3.00;92.00
75113;DHT22;63692;47.338;8.520;2023-03-01T15:32:27;2.90;91.90
75113;DHT22;63692;47.338;8.520;2023-03-01T15:34:53;2.90;91.90
75113;DHT22;63692;47.338;8.520;2023-03-01T15:37:46;2.90;92.10
75113;DHT22;63692;47.338;8.520;2023-03-01T15:40:23;2.90;92.10
75113;DHT22;63692;47.338;8.520;2023-03-01T15:43:00;2.90;92.10
75113;DHT22;63692;47.338;8.520;2023-03-01T15:45:28;2.90;92.10
75113;DHT22;63692;47.338;8.520;2023-03-01T15:47:56;2.90;92.30
75113;DHT22;63692;47.338;8.520;2023-03-01T15:50:30;2.90;92.50
75113;DHT22;63692;47.338;8.520;2023-03-01T15:52:58;2.90;92.20
75113;DHT22;63692;47.338;8.520;2023-03-01T15:55:30;2.90;92.20
75113;DHT22;63692;47.338;8.520;2023-03-01T15:58:17;2.90;92.20
75113;DHT22;63692;47.338;8.520;2023-03-01T16:00:44;2.90;92.30
75113;DHT22;63692;47.338;8.520;2023-03-01T16:03:11;2.90;92.10
75113;DHT22;63692;47.338;8.520;2023-03-01T16:05:37;2.90;92.10
75113;DHT22;63692;47.338;8.520;2023-03-01T16:10:32;2.90;92.00
75113;DHT22;63692;47.338;8.520;2023-03-01T16:20:21;2.80;92.00
75113;DHT22;63692;47.338;8.520;2023-03-01T16:22:47;2.80;92.20
75113;DHT22;63692;47.338;8.520;2023-03-01T16:27:42;2.80;92.20
75113;DHT22;63692;47.338;8.520;2023-03-01T16:32:45;2.80;92.00
75113;DHT22;63692;47.338;8.520;2023-03-01T16:40:24;2.70;92.10
75113;DHT22;63692;47.338;8.520;2023-03-01T16:42:52;2.70;92.20
75113;DHT22;63692;47.338;8.520;2023-03-01T16:45:19;2.70;92.10
75113;DHT22;63692;47.338;8.520;2023-03-01T16:47:45;2.70;92.20
75113;DHT22;63692;47.338;8.520;2023-03-01T16:50:10;2.70;92.20
75113;DHT22;63692;47.338;8.520;2023-03-01T16:52:37;2.70;92.20
75113;DHT22;63692;47.338;8.520;2023-03-01T16:55:05;2.70;92.30
75113;DHT22;63692;47.338;8.520;2023-03-01T16:57:33;2.70;92.20
75113;DHT22;63692;47.338;8.520;2023-03-01T16:59:58;2.70;92.20
75113;DHT22;63692;47.338;8.520;2023-03-01T17:02:24;2.70;92.20
75113;DHT22;63692;47.338;8.520;2023-03-01T17:04:54;2.70;92.20
75113;DHT22;63692;47.338;8.520;2023-03-01T17:07:20;2.70;92.30
75113;DHT22;63692;47.338;8.520;2023-03-01T17:09:46;2.70;92.30
75113;DHT22;63692;47.338;8.520;2023-03-01T17:12:12;2.70;92.40
75113;DHT22;63692;47.338;8.520;2023-03-01T17:14:38;2.70;92.20
75113;DHT22;63692;47.338;8.520;2023-03-01T17:19:33;2.60;92.30
75113;DHT22;63692;47.338;8.520;2023-03-01T17:22:02;2.70;92.80
75113;DHT22;63692;47.338;8.520;2023-03-01T17:24:28;2.60;92.50
75113;DHT22;63692;47.338;8.520;2023-03-01T17:26:56;2.70;92.50
75113;DHT22;63692;47.338;8.520;2023-03-01T17:29:22;2.60;92.30
75113;DHT22;63692;47.338;8.520;2023-03-01T17:31:48;2.70;92.50
75113;DHT22;63692;47.338;8.520;2023-03-01T17:34:13;2.70;92.60
75113;DHT22;63692;47.338;8.520;2023-03-01T17:36:42;2.70;92.70
75113;DHT22;63692;47.338;8.520;2023-03-01T17:41:36;2.80;92.70
75113;DHT22;63692;47.338;8.520;2023-03-01T17:44:01;2.80;92.60
75113;DHT22;63692;47.338;8.520;2023-03-01T17:46:27;2.80;92.50
75113;DHT22;63692;47.338;8.520;2023-03-01T17:48:53;2.90;92.70
75113;DHT22;63692;47.338;8.520;2023-03-01T17:51:19;2.80;92.30
75113;DHT22;63692;47.338;8.520;2023-03-01T17:53:45;2.80;92.30
75113;DHT22;63692;47.338;8.520;2023-03-01T17:56:13;2.90;92.20
75113;DHT22;63692;47.338;8.520;2023-03-01T17:58:40;2.90;92.40
75113;DHT22;63692;47.338;8.520;2023-03-01T18:01:11;2.90;92.30
75113;DHT22;63692;47.338;8.520;2023-03-01T18:03:39;2.90;92.10
75113;DHT22;63692;47.338;8.520;2023-03-01T18:06:24;2.90;92.10
75113;DHT22;63692;47.338;8.520;2023-03-01T18:08:50;2.90;92.50
75113;DHT22;63692;47.338;8.520;2023-03-01T18:11:18;2.90;92.50
75113;DHT22;63692;47.338;8.520;2023-03-01T18:13:44;2.90;92.40
75113;DHT22;63692;47.338;8.520;2023-03-01T18:16:12;2.90;92.30
75113;DHT22;63692;47.338;8.520;2023-03-01T18:18:39;2.90;92.20
75113;DHT22;63692;47.338;8.520;2023-03-01T18:21:05;2.90;92.10
75113;DHT22;63692;47.338;8.520;2023-03-01T18:23:32;2.80;92.40
75113;DHT22;63692;47.338;8.520;2023-03-01T18:25:59;2.90;93.00
75113;DHT22;63692;47.338;8.520;2023-03-01T18:28:27;2.90;92.80
75113;DHT22;63692;47.338;8.520;2023-03-01T18:31:03;2.90;92.60
75113;DHT22;63692;47.338;8.520;2023-03-01T18:33:30;2.90;92.60
75113;DHT22;63692;47.338;8.520;2023-03-01T18:35:56;2.80;92.30
75113;DHT22;63692;47.338;8.520;2023-03-01T18:38:22;2.80;92.50
75113;DHT22;63692;47.338;8.520;2023-03-01T18:40:53;2.80;92.40
75113;DHT22;63692;47.338;8.520;2023-03-01T18:43:19;2.80;92.30
75113;DHT22;63692;47.338;8.520;2023-03-01T18:45:44;2.80;92.50
75113;DHT22;63692;47.338;8.520;2023-03-01T18:48:11;2.80;92.50
75113;DHT22;63692;47.338;8.520;2023-03-01T18:50:38;2.80;92.40
75113;DHT22;63692;47.338;8.520;2023-03-01T18:53:04;2.80;92.40
75113;DHT22;63692;47.338;8.520;2023-03-01T18:55:30;2.80;92.80
75113;DHT22;63692;47.338;8.520;2023-03-01T18:57:55;2.80;92.50
75113;DHT22;63692;47.338;8.520;2023-03-01T19:00:21;2.80;92.80
75113;DHT22;63692;47.338;8.520;2023-03-01T19:02:47;2.80;93.20
75113;DHT22;63692;47.338;8.520;2023-03-01T19:05:13;2.80;92.90
75113;DHT22;63692;47.338;8.520;2023-03-01T19:07:39;2.80;92.90
75113;DHT22;63692;47.338;8.520;2023-03-01T19:10:05;2.80;93.40
75113;DHT22;63692;47.338;8.520;2023-03-01T19:12:31;2.80;93.00
75113;DHT22;63692;47.338;8.520;2023-03-01T19:14:59;2.70;92.70
75113;DHT22;63692;47.338;8.520;2023-03-01T19:17:25;2.80;92.70
75113;DHT22;63692;47.338;8.520;2023-03-01T19:19:55;2.70;92.70
75113;DHT22;63692;47.338;8.520;2023-03-01T19:22:21;2.70;93.10
75113;DHT22;63692;47.338;8.520;2023-03-01T19:24:46;2.70;93.10
75113;DHT22;63692;47.338;8.520;2023-03-01T19:27:12;2.70;93.60
75113;DHT22;63692;47.338;8.520;2023-03-01T19:29:38;2.70;93.40
75113;DHT22;63692;47.338;8.520;2023-03-01T19:32:04;2.70;93.40
75113;DHT22;63692;47.338;8.520;2023-03-01T19:34:29;2.70;93.80
75113;DHT22;63692;47.338;8.520;2023-03-01T19:36:55;2.70;93.70
75113;DHT22;63692;47.338;8.520;2023-03-01T19:39:21;2.70;93.30
75113;DHT22;63692;47.338;8.520;2023-03-01T19:41:51;2.70;93.30
75113;DHT22;63692;47.338;8.520;2023-03-01T19:44:16;2.70;93.50
75113;DHT22;63692;47.338;8.520;2023-03-01T19:46:42;2.80;93.10
75113;DHT22;63692;47.338;8.520;2023-03-01T19:49:07;2.70;93.10
75113;DHT22;63692;47.338;8.520;2023-03-01T19:51:33;2.80;93.40
75113;DHT22;63692;47.338;8.520;2023-03-01T19:54:01;2.80;93.10
75113;DHT22;63692;47.338;8.520;2023-03-01T19:56:27;2.80;93.70
75113;DHT22;63692;47.338;8.520;2023-03-01T19:58:52;2.80;93.70
75113;DHT22;63692;47.338;8.520;2023-03-01T20:01:25;2.80;93.80
75113;DHT22;63692;47.338;8.520;2023-03-01T20:03:54;2.80;93.70
75113;DHT22;63692;47.338;8.520;2023-03-01T20:06:20;2.80;93.60
75113;DHT22;63692;47.338;8.520;2023-03-01T20:08:47;2.80;93.90
75113;DHT22;63692;47.338;8.520;2023-03-01T20:11:14;2.80;93.90
75113;DHT22;63692;47.338;8.520;2023-03-01T20:13:41;2.70;93.90
75113;DHT22;63692;47.338;8.520;2023-03-01T20:16:07;2.80;93.80
75113;DHT22;63692;47.338;8.520;2023-03-01T20:18:33;2.80;93.70
75113;DHT22;63692;47.338;8.520;2023-03-01T20:20:59;2.80;93.70
75113;DHT22;63692;47.338;8.520;2023-03-01T20:28:19;2.80;93.50
75113;DHT22;63692;47.338;8.520;2023-03-01T20:30:45;2.80;93.70
75113;DHT22;63692;47.338;8.520;2023-03-01T20:33:11;2.80;93.70
75113;DHT22;63692;47.338;8.520;2023-03-01T20:35:40;2.80;93.60
75113;DHT22;63692;47.338;8.520;2023-03-01T20:38:06;2.80;93.80
75113;DHT22;63692;47.338;8.520;2023-03-01T20:40:32;2.80;93.70
75113;DHT22;63692;47.338;8.520;2023-03-01T20:42:58;2.80;93.70
75113;DHT22;63692;47.338;8.520;2023-03-01T20:45:24;2.80;93.50
75113;DHT22;63692;47.338;8.520;2023-03-01T20:47:51;2.80;93.40
